CheckWX is a tool to help pilots better visualize weather data.  It is not intended as a substitute for an official pre-flight weather briefing.

07:59:00 UTC

KHAE METAR
Hannibal Regional Airport
Hannibal, Missouri, USA
Current

24 mins ago

KHAE 200735Z AUTO 08009G17KT 4SM -SN OVC009 00/M02 A2994 RMK AO2
Observed
Feb-20 @ 07:35 UTC
Wind
  • 080° at 9 KTS
  • Gusting to 17 KTS
Visibility
6,437 meters
Flight Rules
IFR
Conditions
Light Snow
Cloud Levels
  • Overcast at 900' AGL
Temperature
C / 32°F
Dewpoint
-2°C / 28°F
Humidity
87%
Altimeter
29.94" Hg
Pressure
1013.92 hPa
Previous

44 mins ago

KHAE 200715Z AUTO 08011G18KT 4SM -SN OVC011 00/M03 A2996 RMK AO2 LTG DSNT S
Observed
Feb-20 @ 07:15 UTC
Wind
  • 080° at 11 KTS
  • Gusting to 18 KTS
Visibility
6,437 meters
Flight Rules
MVFR
Conditions
Light Snow
Cloud Levels
  • Overcast at 1,100' AGL
Temperature
C / 32°F
Dewpoint
-3°C / 27°F
Humidity
80%
Altimeter
29.96" Hg
Pressure
1014.52 hPa
Previous

1 hour ago

KHAE 200655Z AUTO 08012G16KT 5SM -SN OVC011 00/M03 A2998 RMK AO2 LTG DSNT S
Observed
Feb-20 @ 06:55 UTC
Wind
  • 080° at 12 KTS
  • Gusting to 16 KTS
Visibility
8,047 meters
Flight Rules
MVFR
Conditions
Light Snow
Cloud Levels
  • Overcast at 1,100' AGL
Temperature
C / 32°F
Dewpoint
-3°C / 27°F
Humidity
80%
Altimeter
29.98" Hg
Pressure
1015.22 hPa